sensor_id;sensor_type;location;lat;lon;timestamp;P1;durP1;ratioP1;P2;durP2;ratioP2
36815;SDS011;71982;52.294;6.760;2023-10-08T00:01:28;24.55;;;7.20;;
36815;SDS011;71982;52.294;6.760;2023-10-08T00:03:58;25.00;;;6.85;;
36815;SDS011;71982;52.294;6.760;2023-10-08T00:06:29;28.25;;;6.47;;
36815;SDS011;71982;52.294;6.760;2023-10-08T00:08:57;28.17;;;7.10;;
36815;SDS011;71982;52.294;6.760;2023-10-08T00:11:31;27.85;;;8.13;;
36815;SDS011;71982;52.294;6.760;2023-10-08T00:14:02;26.83;;;7.55;;
36815;SDS011;71982;52.294;6.760;2023-10-08T00:16:30;20.98;;;6.47;;
36815;SDS011;71982;52.294;6.760;2023-10-08T00:18:58;23.17;;;6.88;;
36815;SDS011;71982;52.294;6.760;2023-10-08T00:21:32;24.73;;;7.60;;
36815;SDS011;71982;52.294;6.760;2023-10-08T00:24:01;26.30;;;7.07;;
36815;SDS011;71982;52.294;6.760;2023-10-08T00:26:31;22.02;;;6.78;;
36815;SDS011;71982;52.294;6.760;2023-10-08T00:29:02;29.75;;;7.72;;
36815;SDS011;71982;52.294;6.760;2023-10-08T00:31:40;20.98;;;5.95;;
36815;SDS011;71982;52.294;6.760;2023-10-08T00:34:10;22.73;;;7.32;;
36815;SDS011;71982;52.294;6.760;2023-10-08T00:36:39;21.35;;;6.28;;
36815;SDS011;71982;52.294;6.760;2023-10-08T00:39:07;23.90;;;6.38;;
36815;SDS011;71982;52.294;6.760;2023-10-08T00:41:48;20.67;;;6.95;;
36815;SDS011;71982;52.294;6.760;2023-10-08T00:44:31;25.70;;;7.05;;
36815;SDS011;71982;52.294;6.760;2023-10-08T00:47:03;23.75;;;7.07;;
36815;SDS011;71982;52.294;6.760;2023-10-08T00:49:40;23.90;;;7.15;;
36815;SDS011;71982;52.294;6.760;2023-10-08T00:52:29;22.17;;;6.35;;
36815;SDS011;71982;52.294;6.760;2023-10-08T00:55:05;23.20;;;6.78;;
36815;SDS011;71982;52.294;6.760;2023-10-08T00:57:55;23.35;;;6.30;;
36815;SDS011;71982;52.294;6.760;2023-10-08T01:01:08;22.55;;;6.93;;
36815;SDS011;71982;52.294;6.760;2023-10-08T01:03:47;22.13;;;6.65;;
36815;SDS011;71982;52.294;6.760;2023-10-08T01:06:15;18.23;;;6.03;;
36815;SDS011;71982;52.294;6.760;2023-10-08T01:08:49;19.77;;;5.68;;
36815;SDS011;71982;52.294;6.760;2023-10-08T01:11:22;20.58;;;6.75;;
36815;SDS011;71982;52.294;6.760;2023-10-08T01:13:58;21.67;;;6.00;;
36815;SDS011;71982;52.294;6.760;2023-10-08T01:16:27;21.88;;;7.10;;
36815;SDS011;71982;52.294;6.760;2023-10-08T01:18:54;21.52;;;6.85;;
36815;SDS011;71982;52.294;6.760;2023-10-08T01:21:27;17.15;;;6.45;;
36815;SDS011;71982;52.294;6.760;2023-10-08T01:24:00;20.85;;;6.68;;
36815;SDS011;71982;52.294;6.760;2023-10-08T01:28:58;23.90;;;7.88;;
36815;SDS011;71982;52.294;6.760;2023-10-08T01:31:28;21.45;;;7.20;;
36815;SDS011;71982;52.294;6.760;2023-10-08T01:33:55;20.33;;;7.78;;
36815;SDS011;71982;52.294;6.760;2023-10-08T01:36:25;22.52;;;7.32;;
36815;SDS011;71982;52.294;6.760;2023-10-08T01:38:53;9.40;;;3.90;;
36815;SDS011;71982;52.294;6.760;2023-10-08T01:41:35;6.23;;;2.83;;
36815;SDS011;71982;52.294;6.760;2023-10-08T01:44:05;5.40;;;2.15;;
36815;SDS011;71982;52.294;6.760;2023-10-08T01:46:33;3.90;;;2.38;;
36815;SDS011;71982;52.294;6.760;2023-10-08T01:49:01;6.15;;;2.45;;
36815;SDS011;71982;52.294;6.760;2023-10-08T01:54:04;3.00;;;2.10;;
36815;SDS011;71982;52.294;6.760;2023-10-08T01:56:38;5.78;;;2.22;;
36815;SDS011;71982;52.294;6.760;2023-10-08T01:59:09;3.55;;;2.47;;
36815;SDS011;71982;52.294;6.760;2023-10-08T02:01:38;3.80;;;2.40;;
36815;SDS011;71982;52.294;6.760;2023-10-08T02:04:06;6.18;;;3.00;;
36815;SDS011;71982;52.294;6.760;2023-10-08T02:06:42;6.93;;;3.10;;
36815;SDS011;71982;52.294;6.760;2023-10-08T02:09:33;5.97;;;2.50;;
36815;SDS011;71982;52.294;6.760;2023-10-08T02:12:01;5.90;;;2.80;;
36815;SDS011;71982;52.294;6.760;2023-10-08T02:14:28;3.08;;;2.70;;
36815;SDS011;71982;52.294;6.760;2023-10-08T02:19:31;5.25;;;2.42;;
36815;SDS011;71982;52.294;6.760;2023-10-08T02:21:59;3.42;;;2.50;;
36815;SDS011;71982;52.294;6.760;2023-10-08T02:24:27;7.72;;;3.17;;
36815;SDS011;71982;52.294;6.760;2023-10-08T02:26:58;5.85;;;2.92;;
36815;SDS011;71982;52.294;6.760;2023-10-08T02:29:29;5.85;;;3.25;;
36815;SDS011;71982;52.294;6.760;2023-10-08T02:34:26;6.53;;;2.53;;
36815;SDS011;71982;52.294;6.760;2023-10-08T02:39:35;5.05;;;2.40;;
36815;SDS011;71982;52.294;6.760;2023-10-08T02:42:08;4.90;;;2.10;;
36815;SDS011;71982;52.294;6.760;2023-10-08T02:44:40;6.60;;;2.05;;
36815;SDS011;71982;52.294;6.760;2023-10-08T02:47:11;4.75;;;1.90;;
36815;SDS011;71982;52.294;6.760;2023-10-08T02:49:38;5.85;;;2.17;;
36815;SDS011;71982;52.294;6.760;2023-10-08T02:52:13;8.18;;;2.10;;
36815;SDS011;71982;52.294;6.760;2023-10-08T02:54:40;4.97;;;2.13;;
36815;SDS011;71982;52.294;6.760;2023-10-08T02:57:14;4.35;;;2.10;;
36815;SDS011;71982;52.294;6.760;2023-10-08T02:59:54;2.97;;;2.10;;
36815;SDS011;71982;52.294;6.760;2023-10-08T03:02:21;5.68;;;1.75;;
36815;SDS011;71982;52.294;6.760;2023-10-08T03:05:01;5.22;;;1.98;;
36815;SDS011;71982;52.294;6.760;2023-10-08T03:07:33;2.00;;;1.77;;
36815;SDS011;71982;52.294;6.760;2023-10-08T03:10:00;2.30;;;1.67;;
36815;SDS011;71982;52.294;6.760;2023-10-08T03:12:31;4.23;;;1.97;;
36815;SDS011;71982;52.294;6.760;2023-10-08T03:14:59;3.33;;;2.08;;
36815;SDS011;71982;52.294;6.760;2023-10-08T03:17:38;2.15;;;1.95;;
36815;SDS011;71982;52.294;6.760;2023-10-08T03:20:13;7.25;;;2.25;;
36815;SDS011;71982;52.294;6.760;2023-10-08T03:22:56;3.85;;;2.45;;
36815;SDS011;71982;52.294;6.760;2023-10-08T03:25:44;7.18;;;2.55;;
36815;SDS011;71982;52.294;6.760;2023-10-08T03:28:18;3.25;;;2.42;;
36815;SDS011;71982;52.294;6.760;2023-10-08T03:31:24;3.92;;;2.90;;
36815;SDS011;71982;52.294;6.760;2023-10-08T03:34:28;3.95;;;3.30;;
36815;SDS011;71982;52.294;6.760;2023-10-08T03:37:03;5.78;;;3.10;;
36815;SDS011;71982;52.294;6.760;2023-10-08T03:40:08;8.27;;;3.47;;
36815;SDS011;71982;52.294;6.760;2023-10-08T03:42:59;5.75;;;3.25;;
36815;SDS011;71982;52.294;6.760;2023-10-08T03:45:27;7.28;;;3.50;;
36815;SDS011;71982;52.294;6.760;2023-10-08T03:48:22;4.72;;;3.40;;
36815;SDS011;71982;52.294;6.760;2023-10-08T03:53:44;5.68;;;3.22;;
36815;SDS011;71982;52.294;6.760;2023-10-08T03:56:44;3.70;;;3.13;;
36815;SDS011;71982;52.294;6.760;2023-10-08T03:59:19;4.13;;;2.92;;
36815;SDS011;71982;52.294;6.760;2023-10-08T04:01:56;5.18;;;3.45;;
36815;SDS011;71982;52.294;6.760;2023-10-08T04:04:42;6.15;;;3.70;;
36815;SDS011;71982;52.294;6.760;2023-10-08T04:07:22;6.13;;;3.83;;
36815;SDS011;71982;52.294;6.760;2023-10-08T04:10:07;5.55;;;4.25;;
36815;SDS011;71982;52.294;6.760;2023-10-08T04:13:04;8.23;;;4.00;;
36815;SDS011;71982;52.294;6.760;2023-10-08T04:15:33;9.05;;;4.22;;
36815;SDS011;71982;52.294;6.760;2023-10-08T04:20:34;5.28;;;4.10;;
36815;SDS011;71982;52.294;6.760;2023-10-08T04:23:04;6.57;;;4.60;;
36815;SDS011;71982;52.294;6.760;2023-10-08T04:25:38;7.25;;;4.65;;
36815;SDS011;71982;52.294;6.760;2023-10-08T04:28:08;6.90;;;4.05;;
36815;SDS011;71982;52.294;6.760;2023-10-08T04:30:40;5.97;;;4.40;;
36815;SDS011;71982;52.294;6.760;2023-10-08T04:33:08;7.75;;;4.97;;
36815;SDS011;71982;52.294;6.760;2023-10-08T04:35:52;5.90;;;4.22;;
36815;SDS011;71982;52.294;6.760;2023-10-08T04:38:33;6.55;;;4.60;;
36815;SDS011;71982;52.294;6.760;2023-10-08T04:41:23;7.57;;;5.50;;
36815;SDS011;71982;52.294;6.760;2023-10-08T04:43:55;6.28;;;4.40;;
36815;SDS011;71982;52.294;6.760;2023-10-08T04:46:22;8.90;;;5.30;;
36815;SDS011;71982;52.294;6.760;2023-10-08T04:49:11;13.00;;;4.95;;
36815;SDS011;71982;52.294;6.760;2023-10-08T04:55:21;6.88;;;4.90;;
36815;SDS011;71982;52.294;6.760;2023-10-08T04:57:53;12.68;;;5.00;;
36815;SDS011;71982;52.294;6.760;2023-10-08T05:00:29;6.40;;;4.32;;
36815;SDS011;71982;52.294;6.760;2023-10-08T05:03:22;5.55;;;4.25;;
36815;SDS011;71982;52.294;6.760;2023-10-08T05:05:56;17.30;;;4.30;;
36815;SDS011;71982;52.294;6.760;2023-10-08T05:08:50;5.10;;;4.15;;
36815;SDS011;71982;52.294;6.760;2023-10-08T05:11:24;7.03;;;4.25;;
36815;SDS011;71982;52.294;6.760;2023-10-08T05:14:14;4.93;;;3.90;;
36815;SDS011;71982;52.294;6.760;2023-10-08T05:16:54;7.03;;;4.80;;
36815;SDS011;71982;52.294;6.760;2023-10-08T05:22:45;5.68;;;3.95;;
36815;SDS011;71982;52.294;6.760;2023-10-08T05:25:20;6.00;;;4.00;;
36815;SDS011;71982;52.294;6.760;2023-10-08T05:28:06;6.18;;;4.32;;
36815;SDS011;71982;52.294;6.760;2023-10-08T05:30:37;5.90;;;4.25;;
36815;SDS011;71982;52.294;6.760;2023-10-08T05:33:05;9.10;;;5.18;;
36815;SDS011;71982;52.294;6.760;2023-10-08T05:35:38;6.85;;;4.93;;
36815;SDS011;71982;52.294;6.760;2023-10-08T05:38:29;7.30;;;4.70;;
36815;SDS011;71982;52.294;6.760;2023-10-08T05:41:13;6.63;;;4.80;;
36815;SDS011;71982;52.294;6.760;2023-10-08T05:47:08;7.90;;;5.53;;
36815;SDS011;71982;52.294;6.760;2023-10-08T05:49:56;6.55;;;4.30;;
36815;SDS011;71982;52.294;6.760;2023-10-08T05:52:36;9.00;;;4.85;;
36815;SDS011;71982;52.294;6.760;2023-10-08T05:55:38;7.03;;;4.60;;
36815;SDS011;71982;52.294;6.760;2023-10-08T05:58:12;6.35;;;3.92;;
36815;SDS011;71982;52.294;6.760;2023-10-08T06:00:53;4.97;;;3.92;;
36815;SDS011;71982;52.294;6.760;2023-10-08T06:03:38;7.40;;;4.32;;
36815;SDS011;71982;52.294;6.760;2023-10-08T06:06:21;5.50;;;4.20;;
36815;SDS011;71982;52.294;6.760;2023-10-08T06:09:23;5.72;;;3.65;;
36815;SDS011;71982;52.294;6.760;2023-10-08T06:12:04;7.63;;;3.90;;
36815;SDS011;71982;52.294;6.760;2023-10-08T06:14:44;6.35;;;3.40;;
36815;SDS011;71982;52.294;6.760;2023-10-08T06:17:37;4.82;;;3.03;;
36815;SDS011;71982;52.294;6.760;2023-10-08T06:20:29;5.05;;;2.97;;
36815;SDS011;71982;52.294;6.760;2023-10-08T06:23:04;6.78;;;3.75;;
36815;SDS011;71982;52.294;6.760;2023-10-08T06:25:32;5.20;;;3.50;;
36815;SDS011;71982;52.294;6.760;2023-10-08T06:28:09;4.60;;;3.40;;
36815;SDS011;71982;52.294;6.760;2023-10-08T06:30:37;7.75;;;3.97;;
36815;SDS011;71982;52.294;6.760;2023-10-08T06:33:07;7.40;;;4.22;;
36815;SDS011;71982;52.294;6.760;2023-10-08T06:35:36;5.93;;;4.05;;
36815;SDS011;71982;52.294;6.760;2023-10-08T06:38:05;10.90;;;4.35;;
36815;SDS011;71982;52.294;6.760;2023-10-08T06:40:43;6.47;;;3.92;;
36815;SDS011;71982;52.294;6.760;2023-10-08T06:43:13;9.00;;;4.30;;
36815;SDS011;71982;52.294;6.760;2023-10-08T06:45:56;12.40;;;4.20;;
36815;SDS011;71982;52.294;6.760;2023-10-08T06:48:24;5.70;;;4.07;;
36815;SDS011;71982;52.294;6.760;2023-10-08T06:50:55;8.97;;;4.17;;
36815;SDS011;71982;52.294;6.760;2023-10-08T06:53:24;7.32;;;4.18;;
36815;SDS011;71982;52.294;6.760;2023-10-08T06:55:54;7.43;;;4.07;;
36815;SDS011;71982;52.294;6.760;2023-10-08T06:58:21;12.70;;;4.55;;
36815;SDS011;71982;52.294;6.760;2023-10-08T07:00:49;6.90;;;4.03;;
36815;SDS011;71982;52.294;6.760;2023-10-08T07:03:19;9.35;;;4.03;;
36815;SDS011;71982;52.294;6.760;2023-10-08T07:06:00;6.75;;;3.70;;
36815;SDS011;71982;52.294;6.760;2023-10-08T07:08:29;5.82;;;3.83;;
36815;SDS011;71982;52.294;6.760;2023-10-08T07:11:01;8.27;;;4.10;;
36815;SDS011;71982;52.294;6.760;2023-10-08T07:13:32;6.50;;;3.55;;
36815;SDS011;71982;52.294;6.760;2023-10-08T07:16:01;7.35;;;3.70;;
36815;SDS011;71982;52.294;6.760;2023-10-08T07:18:29;7.20;;;4.13;;
36815;SDS011;71982;52.294;6.760;2023-10-08T07:21:10;7.20;;;4.13;;
36815;SDS011;71982;52.294;6.760;2023-10-08T07:23:41;13.50;;;4.18;;
36815;SDS011;71982;52.294;6.760;2023-10-08T07:26:27;11.55;;;4.60;;
36815;SDS011;71982;52.294;6.760;2023-10-08T07:29:01;11.25;;;4.30;;
36815;SDS011;71982;52.294;6.760;2023-10-08T07:31:33;8.98;;;3.90;;
36815;SDS011;71982;52.294;6.760;2023-10-08T07:34:01;6.93;;;4.20;;
36815;SDS011;71982;52.294;6.760;2023-10-08T07:37:00;10.43;;;3.80;;
36815;SDS011;71982;52.294;6.760;2023-10-08T07:45:46;6.95;;;3.55;;
36815;SDS011;71982;52.294;6.760;2023-10-08T07:48:14;11.90;;;4.63;;
36815;SDS011;71982;52.294;6.760;2023-10-08T07:50:59;6.13;;;3.30;;
36815;SDS011;71982;52.294;6.760;2023-10-08T07:53:33;5.88;;;3.67;;
36815;SDS011;71982;52.294;6.760;2023-10-08T07:56:04;8.73;;;3.60;;
36815;SDS011;71982;52.294;6.760;2023-10-08T08:01:41;7.93;;;3.45;;
36815;SDS011;71982;52.294;6.760;2023-10-08T08:04:26;10.95;;;3.97;;
36815;SDS011;71982;52.294;6.760;2023-10-08T08:06:58;8.65;;;3.92;;
36815;SDS011;71982;52.294;6.760;2023-10-08T08:15:21;4.68;;;3.58;;
36815;SDS011;71982;52.294;6.760;2023-10-08T08:17:51;19.38;;;4.25;;
36815;SDS011;71982;52.294;6.760;2023-10-08T08:20:19;8.60;;;3.83;;
36815;SDS011;71982;52.294;6.760;2023-10-08T08:22:59;7.40;;;3.65;;
36815;SDS011;71982;52.294;6.760;2023-10-08T08:25:36;6.85;;;3.92;;
36815;SDS011;71982;52.294;6.760;2023-10-08T08:28:17;6.95;;;3.83;;
36815;SDS011;71982;52.294;6.760;2023-10-08T08:30:50;10.77;;;4.03;;
36815;SDS011;71982;52.294;6.760;2023-10-08T08:33:31;6.03;;;4.03;;
36815;SDS011;71982;52.294;6.760;2023-10-08T08:36:12;10.30;;;4.57;;
36815;SDS011;71982;52.294;6.760;2023-10-08T08:38:48;14.15;;;4.03;;
36815;SDS011;71982;52.294;6.760;2023-10-08T08:41:19;7.22;;;3.38;;
36815;SDS011;71982;52.294;6.760;2023-10-08T08:44:06;8.38;;;3.90;;
36815;SDS011;71982;52.294;6.760;2023-10-08T08:46:39;4.55;;;3.50;;
36815;SDS011;71982;52.294;6.760;2023-10-08T08:49:07;8.50;;;3.60;;
36815;SDS011;71982;52.294;6.760;2023-10-08T08:51:55;7.50;;;3.50;;
36815;SDS011;71982;52.294;6.760;2023-10-08T09:00:09;9.90;;;2.47;;
36815;SDS011;71982;52.294;6.760;2023-10-08T09:02:39;6.10;;;2.33;;
36815;SDS011;71982;52.294;6.760;2023-10-08T09:05:09;9.60;;;2.35;;
36815;SDS011;71982;52.294;6.760;2023-10-08T09:07:55;8.50;;;2.83;;
36815;SDS011;71982;52.294;6.760;2023-10-08T09:10:30;7.10;;;2.30;;
36815;SDS011;71982;52.294;6.760;2023-10-08T09:13:04;8.93;;;1.92;;
36815;SDS011;71982;52.294;6.760;2023-10-08T09:15:32;7.05;;;2.10;;
36815;SDS011;71982;52.294;6.760;2023-10-08T09:20:46;6.22;;;2.22;;
36815;SDS011;71982;52.294;6.760;2023-10-08T09:23:22;8.15;;;1.98;;
36815;SDS011;71982;52.294;6.760;2023-10-08T09:25:50;7.22;;;2.72;;
36815;SDS011;71982;52.294;6.760;2023-10-08T09:28:33;14.63;;;3.67;;
36815;SDS011;71982;52.294;6.760;2023-10-08T09:33:32;6.32;;;2.03;;
36815;SDS011;71982;52.294;6.760;2023-10-08T09:35:59;7.97;;;2.28;;
36815;SDS011;71982;52.294;6.760;2023-10-08T09:38:29;8.33;;;1.50;;
36815;SDS011;71982;52.294;6.760;2023-10-08T09:40:58;13.75;;;2.42;;
36815;SDS011;71982;52.294;6.760;2023-10-08T09:43:27;6.95;;;1.77;;
36815;SDS011;71982;52.294;6.760;2023-10-08T09:45:58;8.57;;;1.55;;
36815;SDS011;71982;52.294;6.760;2023-10-08T09:48:31;11.20;;;2.10;;
36815;SDS011;71982;52.294;6.760;2023-10-08T09:51:03;7.63;;;1.85;;
36815;SDS011;71982;52.294;6.760;2023-10-08T09:53:32;13.52;;;1.90;;
36815;SDS011;71982;52.294;6.760;2023-10-08T09:56:15;7.15;;;1.50;;
36815;SDS011;71982;52.294;6.760;2023-10-08T09:58:55;8.07;;;1.80;;
36815;SDS011;71982;52.294;6.760;2023-10-08T10:01:23;9.63;;;2.03;;
36815;SDS011;71982;52.294;6.760;2023-10-08T10:03:58;7.57;;;1.45;;
36815;SDS011;71982;52.294;6.760;2023-10-08T10:06:41;7.97;;;1.88;;
36815;SDS011;71982;52.294;6.760;2023-10-08T10:09:09;7.97;;;2.08;;
36815;SDS011;71982;52.294;6.760;2023-10-08T10:11:48;7.57;;;2.08;;
36815;SDS011;71982;52.294;6.760;2023-10-08T10:14:17;11.50;;;1.48;;
36815;SDS011;71982;52.294;6.760;2023-10-08T10:16:49;7.95;;;1.45;;
36815;SDS011;71982;52.294;6.760;2023-10-08T10:19:36;5.97;;;1.42;;
36815;SDS011;71982;52.294;6.760;2023-10-08T10:22:11;8.38;;;2.28;;
36815;SDS011;71982;52.294;6.760;2023-10-08T10:24:45;6.93;;;1.73;;
36815;SDS011;71982;52.294;6.760;2023-10-08T10:27:23;3.60;;;1.25;;
36815;SDS011;71982;52.294;6.760;2023-10-08T10:29:53;6.35;;;1.73;;
36815;SDS011;71982;52.294;6.760;2023-10-08T10:35:01;4.50;;;1.38;;
36815;SDS011;71982;52.294;6.760;2023-10-08T10:37:32;6.75;;;1.55;;
36815;SDS011;71982;52.294;6.760;2023-10-08T10:40:10;6.75;;;1.50;;
36815;SDS011;71982;52.294;6.760;2023-10-08T10:42:38;13.07;;;2.92;;
36815;SDS011;71982;52.294;6.760;2023-10-08T10:45:13;9.82;;;1.67;;
36815;SDS011;71982;52.294;6.760;2023-10-08T10:48:02;9.02;;;1.45;;
36815;SDS011;71982;52.294;6.760;2023-10-08T10:50:38;6.93;;;1.73;;
36815;SDS011;71982;52.294;6.760;2023-10-08T10:53:13;7.28;;;1.35;;
36815;SDS011;71982;52.294;6.760;2023-10-08T10:55:41;7.43;;;1.65;;
36815;SDS011;71982;52.294;6.760;2023-10-08T10:58:23;11.13;;;2.63;;
36815;SDS011;71982;52.294;6.760;2023-10-08T11:00:50;10.20;;;2.38;;
36815;SDS011;71982;52.294;6.760;2023-10-08T11:03:36;4.53;;;1.30;;
36815;SDS011;71982;52.294;6.760;2023-10-08T11:06:02;5.80;;;1.65;;
36815;SDS011;71982;52.294;6.760;2023-10-08T11:08:47;7.53;;;1.30;;
36815;SDS011;71982;52.294;6.760;2023-10-08T11:11:26;6.05;;;1.52;;
36815;SDS011;71982;52.294;6.760;2023-10-08T11:13:55;7.30;;;1.55;;
36815;SDS011;71982;52.294;6.760;2023-10-08T11:16:25;4.18;;;1.10;;
36815;SDS011;71982;52.294;6.760;2023-10-08T11:18:57;4.78;;;1.70;;
36815;SDS011;71982;52.294;6.760;2023-10-08T11:21:31;10.73;;;1.65;;
36815;SDS011;71982;52.294;6.760;2023-10-08T11:23:59;4.38;;;1.38;;
36815;SDS011;71982;52.294;6.760;2023-10-08T11:26:34;9.02;;;1.85;;
36815;SDS011;71982;52.294;6.760;2023-10-08T11:29:05;11.55;;;1.85;;
36815;SDS011;71982;52.294;6.760;2023-10-08T11:31:39;7.22;;;1.50;;
36815;SDS011;71982;52.294;6.760;2023-10-08T11:34:10;7.72;;;1.45;;
36815;SDS011;71982;52.294;6.760;2023-10-08T11:39:18;6.95;;;1.30;;
36815;SDS011;71982;52.294;6.760;2023-10-08T11:41:57;3.38;;;1.25;;
36815;SDS011;71982;52.294;6.760;2023-10-08T11:44:28;6.78;;;1.58;;
36815;SDS011;71982;52.294;6.760;2023-10-08T11:46:55;5.78;;;1.40;;
36815;SDS011;71982;52.294;6.760;2023-10-08T11:49:41;5.60;;;1.38;;
36815;SDS011;71982;52.294;6.760;2023-10-08T11:52:22;3.60;;;1.13;;
36815;SDS011;71982;52.294;6.760;2023-10-08T11:54:50;10.27;;;1.38;;
36815;SDS011;71982;52.294;6.760;2023-10-08T11:57:28;5.45;;;1.20;;
36815;SDS011;71982;52.294;6.760;2023-10-08T11:59:56;7.97;;;1.52;;
36815;SDS011;71982;52.294;6.760;2023-10-08T12:02:25;4.68;;;1.33;;
36815;SDS011;71982;52.294;6.760;2023-10-08T12:04:53;13.00;;;2.35;;
36815;SDS011;71982;52.294;6.760;2023-10-08T12:07:23;7.05;;;1.63;;
36815;SDS011;71982;52.294;6.760;2023-10-08T13:13:58;10.02;;;3.05;;
36815;SDS011;71982;52.294;6.760;2023-10-08T13:16:27;2.42;;;0.95;;
36815;SDS011;71982;52.294;6.760;2023-10-08T13:21:23;15.20;;;2.38;;
36815;SDS011;71982;52.294;6.760;2023-10-08T13:23:53;4.13;;;1.73;;
36815;SDS011;71982;52.294;6.760;2023-10-08T13:26:27;15.07;;;1.90;;
36815;SDS011;71982;52.294;6.760;2023-10-08T13:28:58;6.75;;;1.92;;
36815;SDS011;71982;52.294;6.760;2023-10-08T13:31:25;7.90;;;2.00;;
36815;SDS011;71982;52.294;6.760;2023-10-08T13:33:55;8.30;;;2.22;;
36815;SDS011;71982;52.294;6.760;2023-10-08T13:36:22;3.83;;;1.58;;
36815;SDS011;71982;52.294;6.760;2023-10-08T13:38:52;15.07;;;3.28;;
36815;SDS011;71982;52.294;6.760;2023-10-08T13:41:20;6.45;;;2.13;;
36815;SDS011;71982;52.294;6.760;2023-10-08T13:43:49;6.53;;;1.80;;
36815;SDS011;71982;52.294;6.760;2023-10-08T13:46:20;8.85;;;2.03;;
36815;SDS011;71982;52.294;6.760;2023-10-08T13:48:49;7.07;;;1.60;;
36815;SDS011;71982;52.294;6.760;2023-10-08T13:51:16;7.60;;;2.55;;
36815;SDS011;71982;52.294;6.760;2023-10-08T13:53:50;8.18;;;1.98;;
36815;SDS011;71982;52.294;6.760;2023-10-08T13:56:33;7.63;;;1.75;;
36815;SDS011;71982;52.294;6.760;2023-10-08T13:59:03;8.02;;;1.67;;
36815;SDS011;71982;52.294;6.760;2023-10-08T14:01:38;10.45;;;1.98;;
36815;SDS011;71982;52.294;6.760;2023-10-08T14:06:36;9.57;;;1.85;;
36815;SDS011;71982;52.294;6.760;2023-10-08T14:09:05;7.85;;;2.30;;
36815;SDS011;71982;52.294;6.760;2023-10-08T14:11:36;3.08;;;1.42;;
36815;SDS011;71982;52.294;6.760;2023-10-08T14:14:03;8.93;;;2.30;;
36815;SDS011;71982;52.294;6.760;2023-10-08T14:16:36;12.65;;;2.90;;
36815;SDS011;71982;52.294;6.760;2023-10-08T14:19:07;9.48;;;3.20;;
36815;SDS011;71982;52.294;6.760;2023-10-08T14:21:37;6.45;;;2.40;;
36815;SDS011;71982;52.294;6.760;2023-10-08T14:24:14;7.63;;;2.90;;
36815;SDS011;71982;52.294;6.760;2023-10-08T14:26:43;8.90;;;3.05;;
36815;SDS011;71982;52.294;6.760;2023-10-08T14:29:17;8.27;;;2.88;;
36815;SDS011;71982;52.294;6.760;2023-10-08T14:31:51;8.80;;;2.53;;
36815;SDS011;71982;52.294;6.760;2023-10-08T14:37:09;11.93;;;3.80;;
36815;SDS011;71982;52.294;6.760;2023-10-08T14:39:54;17.35;;;4.10;;
36815;SDS011;71982;52.294;6.760;2023-10-08T14:42:38;8.82;;;2.20;;
36815;SDS011;71982;52.294;6.760;2023-10-08T14:45:21;9.02;;;1.70;;
36815;SDS011;71982;52.294;6.760;2023-10-08T14:48:00;7.70;;;1.65;;
36815;SDS011;71982;52.294;6.760;2023-10-08T14:50:30;13.77;;;2.67;;
36815;SDS011;71982;52.294;6.760;2023-10-08T14:52:58;7.00;;;2.20;;
36815;SDS011;71982;52.294;6.760;2023-10-08T14:55:26;9.07;;;2.33;;
36815;SDS011;71982;52.294;6.760;2023-10-08T14:57:56;8.90;;;2.10;;
36815;SDS011;71982;52.294;6.760;2023-10-08T15:00:23;9.68;;;2.65;;
36815;SDS011;71982;52.294;6.760;2023-10-08T15:02:54;9.50;;;1.90;;
36815;SDS011;71982;52.294;6.760;2023-10-08T15:05:27;4.57;;;1.13;;
36815;SDS011;71982;52.294;6.760;2023-10-08T15:07:55;5.55;;;1.83;;
36815;SDS011;71982;52.294;6.760;2023-10-08T15:10:22;14.88;;;2.88;;
36815;SDS011;71982;52.294;6.760;2023-10-08T15:12:53;7.60;;;1.92;;
36815;SDS011;71982;52.294;6.760;2023-10-08T15:15:27;12.95;;;2.28;;
36815;SDS011;71982;52.294;6.760;2023-10-08T15:18:09;5.90;;;1.67;;
36815;SDS011;71982;52.294;6.760;2023-10-08T15:20:36;8.48;;;1.60;;
36815;SDS011;71982;52.294;6.760;2023-10-08T15:23:06;4.43;;;1.60;;
36815;SDS011;71982;52.294;6.760;2023-10-08T15:25:36;6.03;;;2.47;;
36815;SDS011;71982;52.294;6.760;2023-10-08T15:28:03;6.07;;;1.55;;
36815;SDS011;71982;52.294;6.760;2023-10-08T15:30:30;8.35;;;1.52;;
36815;SDS011;71982;52.294;6.760;2023-10-08T15:32:58;3.97;;;1.67;;
36815;SDS011;71982;52.294;6.760;2023-10-08T15:35:26;2.90;;;1.13;;
36815;SDS011;71982;52.294;6.760;2023-10-08T15:37:53;18.25;;;2.20;;
36815;SDS011;71982;52.294;6.760;2023-10-08T15:40:20;6.28;;;1.77;;
36815;SDS011;71982;52.294;6.760;2023-10-08T15:42:48;12.40;;;2.30;;
36815;SDS011;71982;52.294;6.760;2023-10-08T15:45:17;8.07;;;1.90;;
36815;SDS011;71982;52.294;6.760;2023-10-08T15:48:29;6.45;;;1.45;;
36815;SDS011;71982;52.294;6.760;2023-10-08T15:50:59;6.30;;;1.80;;
36815;SDS011;71982;52.294;6.760;2023-10-08T15:53:25;6.70;;;1.92;;
36815;SDS011;71982;52.294;6.760;2023-10-08T15:55:52;4.03;;;1.80;;
36815;SDS011;71982;52.294;6.760;2023-10-08T15:58:21;10.85;;;2.50;;
36815;SDS011;71982;52.294;6.760;2023-10-08T16:00:48;7.75;;;2.30;;
36815;SDS011;71982;52.294;6.760;2023-10-08T16:03:15;5.63;;;2.00;;
36815;SDS011;71982;52.294;6.760;2023-10-08T16:05:56;6.28;;;2.28;;
36815;SDS011;71982;52.294;6.760;2023-10-08T16:08:24;7.50;;;2.20;;
36815;SDS011;71982;52.294;6.760;2023-10-08T16:10:51;18.00;;;4.30;;
36815;SDS011;71982;52.294;6.760;2023-10-08T16:13:19;8.90;;;2.95;;
36815;SDS011;71982;52.294;6.760;2023-10-08T16:15:50;7.55;;;2.30;;
36815;SDS011;71982;52.294;6.760;2023-10-08T16:18:24;10.80;;;3.05;;
36815;SDS011;71982;52.294;6.760;2023-10-08T16:20:58;13.43;;;2.53;;
36815;SDS011;71982;52.294;6.760;2023-10-08T16:23:26;9.32;;;2.40;;
36815;SDS011;71982;52.294;6.760;2023-10-08T16:25:54;8.18;;;2.35;;
36815;SDS011;71982;52.294;6.760;2023-10-08T16:28:21;8.55;;;2.40;;
36815;SDS011;71982;52.294;6.760;2023-10-08T16:30:52;5.35;;;2.13;;
36815;SDS011;71982;52.294;6.760;2023-10-08T16:33:23;8.50;;;2.00;;
36815;SDS011;71982;52.294;6.760;2023-10-08T16:35:54;11.45;;;2.67;;
36815;SDS011;71982;52.294;6.760;2023-10-08T16:38:21;9.00;;;2.85;;
36815;SDS011;71982;52.294;6.760;2023-10-08T16:40:49;8.30;;;2.60;;
36815;SDS011;71982;52.294;6.760;2023-10-08T16:43:16;7.85;;;3.10;;
36815;SDS011;71982;52.294;6.760;2023-10-08T16:45:46;7.88;;;2.92;;
36815;SDS011;71982;52.294;6.760;2023-10-08T16:48:15;6.83;;;2.60;;
36815;SDS011;71982;52.294;6.760;2023-10-08T16:50:44;8.13;;;2.58;;
36815;SDS011;71982;52.294;6.760;2023-10-08T16:53:11;7.90;;;2.40;;
36815;SDS011;71982;52.294;6.760;2023-10-08T16:55:40;9.68;;;2.53;;
36815;SDS011;71982;52.294;6.760;2023-10-08T16:58:09;11.45;;;3.55;;
36815;SDS011;71982;52.294;6.760;2023-10-08T17:00:52;10.98;;;2.42;;
36815;SDS011;71982;52.294;6.760;2023-10-08T17:03:19;6.63;;;2.38;;
36815;SDS011;71982;52.294;6.760;2023-10-08T17:05:49;4.90;;;2.28;;
36815;SDS011;71982;52.294;6.760;2023-10-08T17:08:25;11.30;;;2.58;;
36815;SDS011;71982;52.294;6.760;2023-10-08T17:10:58;14.43;;;3.13;;
36815;SDS011;71982;52.294;6.760;2023-10-08T17:13:26;8.35;;;2.22;;
36815;SDS011;71982;52.294;6.760;2023-10-08T17:15:55;15.13;;;2.55;;
36815;SDS011;71982;52.294;6.760;2023-10-08T17:18:22;4.38;;;1.50;;
36815;SDS011;71982;52.294;6.760;2023-10-08T17:20:55;12.45;;;2.33;;
36815;SDS011;71982;52.294;6.760;2023-10-08T17:23:24;5.20;;;1.90;;
36815;SDS011;71982;52.294;6.760;2023-10-08T17:25:51;11.57;;;2.20;;
36815;SDS011;71982;52.294;6.760;2023-10-08T17:28:18;7.78;;;2.08;;
36815;SDS011;71982;52.294;6.760;2023-10-08T17:30:49;7.72;;;1.95;;
36815;SDS011;71982;52.294;6.760;2023-10-08T17:33:16;16.27;;;2.15;;
36815;SDS011;71982;52.294;6.760;2023-10-08T17:35:43;4.47;;;1.85;;
36815;SDS011;71982;52.294;6.760;2023-10-08T17:38:10;9.43;;;2.10;;